Terminal Aerodrome Forecast
Issued by NWS

Home | Current Version | Previous Version | Graphics & Text | Print | Product List | Glossary On
Versions: 1 2 3 4 5 6 7 8 9 10 11 12 13 14 15 16 17 18 19 20 21 22 23 24
000
FTUS43 KUNR 280500
TAFGCC
TAF
KGCC 280520Z 2806/2906 36009KT P6SM BKN035
     FM281200 01014KT P6SM BKN015
     FM282100 02013KT P6SM BKN025
     FM290300 01010KT 5SM -SHRA BKN015=

USA.gov is the U.S. government's official web portal to all federal, state and local government web resources and services.